Latest Weather Observations for Mornington Island Airport

IDQ60801

Issued at 4:22 pm EST Sunday 28 February 2021 (issued every 10 minutes, with the page automatically refreshed every 10 minutes)

About weather observations | Map of weather stations | Latest weather observations for QLD | Other Formats
Station Details ID: 029182 Name: MORNINGTON ISLAND AIRPORT Lat: -16.66 Lon: 139.17 Height: 9.52 m
Data from the previous 72 hours. | See also: Recent months at Mornington Island Airport
Date/Time
EST
Temp
°C
App
Temp
°C
Dew
Point
°C
Rel
Hum
%
Delta-T
°C
Wind Press
QNH
hPa
Press
MSL
hPa
Rain since
9am
mm
Dir  Spd
km/h
Gust
km/h
Spd
kts
Gust
kts
28/04:00pm 31.2 - - - - SSE 7 13 4 7 1003.4 1003.3 0.0
28/03:30pm 31.2 - - - - SSE 11 15 6 8 1003.8 1003.7 0.0
28/03:00pm 31.8 - - - - SE 13 17 7 9 1004.3 1004.2 0.0
28/02:30pm 31.5 - - - - SE 13 20 7 11 1004.9 1004.8 0.0
28/02:00pm 31.1 - - - - SE 13 17 7 9 1005.1 1005.0 0.0
28/01:30pm 31.0 - - - - SE 13 20 7 11 1005.6 1005.5 0.0
28/01:00pm 31.0 - - - - SE 13 17 7 9 1005.9 1005.8 0.0
28/12:30pm 30.8 - - - - SE 17 26 9 14 1006.4 1006.3 0.0
28/12:00pm 30.9 - - - - SE 17 24 9 13 1006.7 1006.6 0.0
28/11:30am 30.4 34.7 25.5 75 3.5 SE 13 20 7 11 1007.0 1006.9 0.0
28/11:00am 30.8 35.0 25.4 73 3.8 SE 13 20 7 11 1007.3 1007.2 0.0
28/10:30am 31.0 37.0 26.3 76 3.4 SSW 7 15 4 8 1007.6 1007.5 0.0
28/10:00am 30.1 35.7 25.8 78 3.1 SSW 7 11 4 6 1007.7 1007.6 0.0
28/09:30am 29.0 34.6 25.4 81 2.5 SW 6 9 3 5 1007.7 1007.6 0.0
28/09:00am 28.7 34.3 25.5 83 2.3 E 6 7 3 4 1007.6 1007.5 0.2
28/08:30am 28.1 35.0 25.7 87 1.7 CALM 0 0 0 0 1007.5 1007.4 0.2
28/08:00am 27.4 33.9 25.6 90 1.3 E 2 6 1 3 1007.3 1007.2 0.2
28/07:30am 26.6 32.9 25.4 93 0.8 E 2 7 1 4 1006.7 1006.6 0.2
28/07:00am 26.2 31.5 25.0 93 0.8 E 6 6 3 3 1006.1 1006.0 0.2
28/06:30am 26.1 31.2 24.7 92 1.0 E 6 9 3 5 1005.9 1005.8 0.2
28/06:00am 26.2 31.4 24.8 92 1.0 E 6 9 3 5 1005.6 1005.5 0.2
28/05:30am 26.3 30.7 24.5 90 1.2 E 9 9 5 5 1005.3 1005.2 0.2
28/05:00am 26.3 30.6 24.3 89 1.4 E 9 9 5 5 1005.2 1005.1 0.2
28/04:30am 26.5 30.8 24.3 88 1.5 E 9 13 5 7 1005.4 1005.3 0.2
28/04:00am 26.7 29.9 24.4 87 1.6 E 15 20 8 11 1005.5 1005.4 0.2
28/03:30am 27.1 30.4 25.1 89 1.4 E 17 20 9 11 1005.5 1005.4 0.2
28/03:00am 27.3 32.0 24.9 87 1.7 ENE 9 13 5 7 1005.5 1005.4 0.2
28/02:30am 27.2 31.6 25.0 88 1.5 ENE 11 13 6 7 1005.8 1005.7 0.2
28/02:00am 27.2 32.1 25.2 89 1.4 E 9 13 5 7 1006.1 1006.0 0.2
28/01:30am 27.3 32.1 25.1 88 1.5 E 9 13 5 7 1006.1 1006.0 0.2
28/01:00am 27.3 32.7 25.1 88 1.5 N 6 7 3 4 1005.7 1005.6 0.2
28/12:30am 27.4 32.5 25.0 87 1.7 N 7 11 4 6 1006.0 1005.9 0.2
28/12:00am 27.3 32.4 24.9 87 1.7 N 7 9 4 5 1006.2 1006.1 0.2
 
Date/Time
EST
Temp
°C
App
Temp
°C
Dew
Point
°C
Rel
Hum
%
Delta-T
°C
Wind Press
QNH
hPa
Press
MSL
hPa
Rain since
9am
mm
Dir  Spd
km/h
Gust
km/h
Spd
kts
Gust
kts
27/11:30pm 27.4 33.2 25.2 88 1.5 NNW 4 9 2 5 1006.3 1006.2 0.2
27/11:00pm 27.4 32.3 25.2 88 1.5 NNE 9 13 5 7 1006.4 1006.3 0.2
27/10:30pm 26.9 30.7 24.7 88 1.5 SE 13 17 7 9 1006.6 1006.5 0.2
27/10:00pm 27.2 30.2 24.7 86 1.7 SSE 17 26 9 14 1006.9 1006.8 0.2
27/09:30pm 28.5 33.6 24.9 81 2.5 NNW 7 9 4 5 1006.3 1006.2 0.2
27/09:00pm 28.4 32.8 25.0 82 2.4 NNW 11 15 6 8 1005.9 1005.8 0.2
27/08:30pm 28.4 33.5 25.0 82 2.4 N 7 9 4 5 1005.7 1005.6 0.2
27/08:00pm 28.5 32.8 24.3 78 2.9 N 9 11 5 6 1005.2 1005.1 0.2
27/07:30pm 28.7 - - - - NNW 11 13 6 7 1004.4 1004.3 0.2
27/07:00pm 29.6 - - - - NW 13 15 7 8 1004.2 1004.1 0.2
27/06:30pm 30.8 - - - - WNW 9 13 5 7 1003.9 1003.8 0.2
27/06:00pm 31.0 - - - - W 11 13 6 7 1003.6 1003.5 0.2
27/05:30pm 32.3 - - - - W 7 9 4 5 1003.3 1003.2 0.2
27/05:00pm 31.9 - - - - W 9 13 5 7 1003.1 1003.0 0.2
27/04:30pm 31.3 - - - - WNW 7 9 4 5 1003.2 1003.1 0.2
27/04:00pm 31.3 - - - - WNW 9 13 5 7 1003.4 1003.3 0.2
27/03:30pm 30.7 - - - - W 9 11 5 6 1003.6 1003.5 0.2
27/03:00pm 31.2 - - - - W 9 13 5 7 1004.1 1004.0 0.2
27/02:30pm 32.2 - - - - W 13 17 7 9 1004.4 1004.3 0.2
27/02:00pm 31.8 - - - - W 13 17 7 9 1004.9 1004.8 0.2
27/01:30pm 31.3 - - - - SW 13 17 7 9 1005.1 1005.0 0.2
27/01:00pm 30.8 - - - - SW 13 17 7 9 1005.3 1005.2 0.2
27/12:30pm 30.8 - - - - WSW 13 17 7 9 1005.7 1005.6 0.2
27/12:00pm 31.7 34.8 22.1 56 6.5 S 9 15 5 8 1006.1 1006.0 0.2
27/11:30am 31.4 34.4 22.7 60 6.0 SSE 11 15 6 8 1006.3 1006.2 0.2
27/11:00am 30.1 34.4 24.3 71 4.0 SE 9 11 5 6 1006.4 1006.3 0.2
27/10:30am 30.6 34.2 23.0 64 5.2 SE 9 13 5 7 1006.4 1006.3 0.2
27/10:00am 29.1 33.8 24.0 74 3.5 SW 6 9 3 5 1006.4 1006.3 0.2
27/09:30am 26.0 30.1 23.9 88 1.4 S 9 13 5 7 1007.0 1006.9 0.2
27/09:00am 27.0 28.8 24.8 88 1.5 SE 24 39 13 21 1007.2 1007.1 0.0
27/08:43am 26.1 26.7 24.1 89 1.4 ESE 28 46 15 25 1006.8 1006.7 0.0
27/08:30am 26.4 26.6 24.1 87 1.6 E 30 37 16 20 1006.4 1006.3 0.0
27/08:26am 26.5 27.0 24.0 86 1.7 E 28 35 15 19 1006.5 1006.4 0.0
27/08:00am 28.8 34.4 25.8 84 2.1 SW 7 11 4 6 1006.1 1006.0 0.0
27/07:56am 28.8 34.4 25.8 84 2.1 SW 7 11 4 6 1006.1 1006.0 0.0
27/07:36am 28.6 33.5 25.8 85 2.0 W 11 13 6 7 1005.7 1005.6 0.0
27/07:30am 28.6 33.5 25.8 85 2.0 W 11 13 6 7 1005.5 1005.4 0.0
27/07:00am 28.0 32.7 25.6 87 1.7 W 11 15 6 8 1005.1 1005.0 0.0
27/06:30am 27.8 33.1 25.8 89 1.4 W 9 13 5 7 1005.0 1004.9 0.0
27/06:11am 27.8 32.4 25.4 87 1.7 W 11 13 6 7 1004.8 1004.7 0.0
27/06:00am 27.8 32.5 25.6 88 1.6 WNW 11 13 6 7 1004.6 1004.5 0.0
27/05:30am 27.6 32.7 25.6 89 1.4 WNW 9 11 5 6 1004.5 1004.4 0.0
27/05:00am 27.8 32.9 25.6 88 1.6 WNW 9 11 5 6 1004.4 1004.3 0.0
27/04:30am 27.8 32.7 25.8 89 1.4 NW 11 13 6 7 1004.3 1004.2 0.0
27/04:00am 27.8 32.7 25.8 89 1.4 NW 11 13 6 7 1004.3 1004.2 0.0
27/03:40am 27.1 32.5 25.5 91 1.1 NNW 7 11 4 6 1004.1 1004.0 0.0
27/03:30am 27.0 32.4 25.4 91 1.1 NNW 7 9 4 5 1004.2 1004.1 0.0
27/03:00am 26.9 32.5 24.9 89 1.4 NNW 4 7 2 4 1004.2 1004.1 0.0
27/02:36am 27.5 32.8 25.3 88 1.5 NW 7 9 4 5 1004.6 1004.5 0.0
27/02:30am 27.6 33.0 25.4 88 1.5 NW 7 9 4 5 1004.6 1004.5 0.0
27/02:02am 27.4 32.8 26.0 92 1.0 WNW 9 13 5 7 1004.7 1004.6 0.0
27/02:00am 27.2 33.0 26.0 93 0.9 WSW 7 13 4 7 1004.7 1004.6 0.0
27/01:30am 27.0 32.8 25.8 93 0.8 SSE 6 7 3 4 1005.0 1004.9 0.0
27/01:26am 27.1 32.8 25.9 93 0.8 SSE 7 7 4 4 1005.0 1004.9 0.0
27/01:11am 27.0 34.1 26.0 94 0.7 CALM 0 0 0 0 1005.2 1005.1 0.0
27/01:00am 27.0 34.0 25.8 93 0.8 CALM 0 0 0 0 1005.3 1005.2 0.0
27/12:30am 27.1 33.2 25.7 92 1.0 SSE 4 6 2 3 1005.7 1005.6 0.0
27/12:00am 27.5 33.5 26.4 94 0.8 NE 7 9 4 5 1005.6 1005.5 0.0
 
Date/Time
EST
Temp
°C
App
Temp
°C
Dew
Point
°C
Rel
Hum
%
Delta-T
°C
Wind Press
QNH
hPa
Press
MSL
hPa
Rain since
9am
mm
Dir  Spd
km/h
Gust
km/h
Spd
kts
Gust
kts
26/11:30pm 27.5 34.0 26.3 93 0.9 NNW 4 9 2 5 1005.9 1005.8 0.0
26/11:00pm 27.5 34.5 25.9 91 1.1 CALM 0 0 0 0 1006.1 1006.0 0.0
26/10:30pm 27.8 35.0 26.2 91 1.1 CALM 0 0 0 0 1006.2 1006.1 0.0
26/10:00pm 27.8 35.0 26.2 91 1.1 CALM 0 0 0 0 1006.1 1006.0 0.0
26/09:30pm 27.7 34.7 25.9 90 1.3 CALM 0 0 0 0 1006.0 1005.9 0.0
26/09:00pm 28.0 35.1 26.0 89 1.4 CALM 0 0 0 0 1005.8 1005.7 0.0
26/08:30pm 28.3 33.9 25.5 85 2.0 NNW 6 7 3 4 1005.4 1005.3 0.0
26/08:00pm 28.6 33.9 25.2 82 2.4 NNW 7 7 4 4 1004.7 1004.6 0.0
26/07:30pm 29.0 33.7 25.0 79 2.8 NNW 9 9 5 5 1004.5 1004.4 0.0
26/07:00pm 29.7 34.7 24.8 75 3.4 NNW 7 9 4 5 1004.2 1004.1 0.0
26/06:30pm 30.5 34.6 24.6 70 4.1 NNW 11 13 6 7 1003.8 1003.7 0.0
26/06:00pm 30.6 - - - - NW 13 15 7 8 1003.7 1003.6 0.0
26/05:30pm 31.5 - - - - NW 9 13 5 7 1003.4 1003.3 0.0
26/05:00pm 31.1 - - - - NW 11 13 6 7 1003.1 1003.0 0.0
26/04:30pm 31.2 - - - - NW 11 15 6 8 1003.0 1002.9 0.0
26/04:00pm 31.3 - - - - WNW 13 17 7 9 1003.1 1003.0 0.0
26/03:30pm 31.5 - - - - N 4 11 2 6 1003.3 1003.2 0.0
26/03:00pm 31.8 - - - - N 9 15 5 8 1003.6 1003.5 0.0
26/02:30pm 29.2 - - - - NNW 13 19 7 10 1003.9 1003.8 0.0
26/02:00pm 30.8 - - - - WNW 13 15 7 8 1004.4 1004.3 0.0
26/01:30pm 31.2 - - - - W 13 17 7 9 1004.4 1004.3 0.0
26/01:00pm 30.8 - - - - WSW 11 15 6 8 1004.6 1004.5 0.0
26/12:30pm 30.7 34.7 25.1 72 3.9 W 13 15 7 8 1004.7 1004.6 0.0
26/12:00pm 30.9 35.2 25.5 73 3.8 W 13 17 7 9 1004.7 1004.6 0.0
26/11:30am 30.6 35.0 25.0 72 3.9 W 11 15 6 8 1005.2 1005.1 0.0
26/11:00am 30.5 35.4 25.3 74 3.7 W 9 11 5 6 1005.4 1005.3 0.0
26/10:30am 30.1 35.0 25.2 75 3.5 W 9 11 5 6 1005.6 1005.5 0.0
26/10:00am 30.2 34.9 25.0 73 3.7 W 9 11 5 6 1005.7 1005.6 0.0
26/09:30am 30.4 36.1 25.9 77 3.2 WSW 7 11 4 6 1005.9 1005.8 0.0
26/09:00am 29.8 34.9 26.2 81 2.6 WSW 11 15 6 8 1005.7 1005.6 4.6
26/08:30am 29.6 35.0 26.0 81 2.6 WSW 9 13 5 7 1005.4 1005.3 4.6
26/08:00am 28.8 33.6 26.2 86 1.9 WSW 13 19 7 10 1005.1 1005.0 4.6
26/07:53am 28.8 33.6 26.2 86 1.8 WSW 13 20 7 11 1005.1 1005.0 4.6
26/07:30am 28.2 32.7 26.4 90 1.3 WSW 15 20 8 11 1004.8 1004.7 4.6
26/07:17am 28.1 32.5 26.3 90 1.3 WSW 15 20 8 11 1004.7 1004.6 4.6
26/07:00am 28.0 32.4 26.2 90 1.3 WSW 15 20 8 11 1004.5 1004.4 4.6
26/06:30am 27.9 32.2 25.5 87 1.7 W 13 17 7 9 1004.3 1004.2 4.6
26/06:00am 27.7 32.4 25.5 88 1.6 W 11 15 6 8 1004.1 1004.0 4.6
26/05:30am 27.7 31.4 25.1 86 1.8 W 15 17 8 9 1004.0 1003.9 4.6
26/05:00am 27.6 32.2 25.4 88 1.5 W 11 15 6 8 1004.1 1004.0 4.6
26/04:30am 27.0 32.5 25.6 92 1.0 NNE 7 11 4 6 1004.1 1004.0 4.6
26/04:00am 26.6 33.3 25.4 93 0.8 CALM 0 0 0 0 1004.1 1004.0 4.6
26/03:30am 26.8 33.6 25.6 93 0.8 CALM 0 0 0 0 1004.1 1004.0 4.6
26/03:00am 26.9 33.2 25.3 91 1.1 NNE 2 7 1 4 1004.3 1004.2 4.6
26/02:30am 26.8 32.1 25.0 90 1.3 NNE 6 7 3 4 1004.4 1004.3 4.6
26/02:00am 27.0 32.4 25.4 91 1.1 NNE 7 9 4 5 1004.8 1004.7 4.6
26/01:30am 27.0 32.5 25.6 92 1.0 NNE 7 9 4 5 1005.3 1005.2 4.6
26/01:00am 27.1 32.7 25.5 91 1.1 NNE 6 7 3 4 1005.3 1005.2 4.6
26/12:30am 27.0 32.7 25.6 92 1.0 NNE 6 7 3 4 1005.8 1005.7 4.6
26/12:00am 27.2 32.9 25.6 91 1.1 NNE 6 7 3 4 1005.9 1005.8 4.6
 
Date/Time
EST
Temp
°C
App
Temp
°C
Dew
Point
°C
Rel
Hum
%
Delta-T
°C
Wind Press
QNH
hPa
Press
MSL
hPa
Rain since
9am
mm
Dir  Spd
km/h
Gust
km/h
Spd
kts
Gust
kts
25/11:30pm 27.3 33.1 25.7 91 1.1 NNE 6 7 3 4 1006.1 1006.0 4.6
25/11:00pm 27.4 32.8 25.4 89 1.4 NNE 7 9 4 5 1006.1 1006.0 4.6
25/10:30pm 27.3 32.7 25.5 90 1.3 NNE 7 9 4 5 1006.0 1005.9 4.6
25/10:00pm 27.5 33.3 25.7 90 1.3 NNE 6 7 3 4 1005.6 1005.5 4.6
25/09:30pm 27.7 33.0 25.3 87 1.7 NNE 7 7 4 4 1005.4 1005.3 4.6
25/09:00pm 27.7 33.3 25.5 88 1.6 NNE 6 9 3 5 1005.3 1005.2 4.6
25/08:30pm 27.9 34.7 25.5 87 1.7 CALM 0 0 0 0 1005.2 1005.1 4.6
25/08:00pm 27.9 34.7 25.5 87 1.7 CALM 0 0 0 0 1005.3 1005.2 4.6
25/07:30pm 28.0 34.6 25.2 85 2.0 CALM 0 0 0 0 1005.4 1005.3 4.6
25/07:00pm 28.3 34.4 24.5 80 2.6 CALM 0 0 0 0 1005.2 1005.1 4.6
25/06:30pm 28.8 33.7 24.4 77 3.1 NNE 6 7 3 4 1004.9 1004.8 4.6
25/06:00pm 29.0 34.0 24.8 78 2.9 NNE 7 9 4 5 1004.4 1004.3 4.6
25/05:30pm 29.2 33.5 24.3 75 3.4 NE 9 11 5 6 1004.4 1004.3 4.6
25/05:00pm 29.5 34.3 24.4 74 3.6 ENE 7 13 4 7 1004.2 1004.1 4.6
25/04:30pm 29.6 33.3 24.5 74 3.6 NE 13 15 7 8 1004.5 1004.4 4.6

Other formats

Comma delimited format used in spreadsheet applications
http://www.bom.gov.au/fwo/IDQ60801/IDQ60801.94254.axf

JavaScript Object Notation format (JSON) in row-major order
http://www.bom.gov.au/fwo/IDQ60801/IDQ60801.94254.json

Data quality

Most of these data are generated automatically and are frequently updated. Quality checks on data are not normally performed. It is possible for incorrect values to appear. Refer to information at About Latest Weather Observations and please check the disclaimer before using these data.